createdAt,value
2019-03-28T00:00:57.956Z,5.90
2019-03-28T00:03:27.644Z,5.80
2019-03-28T00:05:58.118Z,5.90
2019-03-28T00:08:28.280Z,5.90
2019-03-28T00:10:58.497Z,5.90
2019-03-28T00:13:28.263Z,5.90
2019-03-28T00:16:00.804Z,5.80
2019-03-28T00:18:30.586Z,5.70
2019-03-28T00:21:01.084Z,5.70
2019-03-28T00:23:39.999Z,5.70
2019-03-28T00:26:10.205Z,5.70
2019-03-28T00:28:39.927Z,5.60
2019-03-28T00:31:09.722Z,5.70
2019-03-28T00:33:39.429Z,5.60
2019-03-28T00:36:09.100Z,5.50
2019-03-28T00:38:38.881Z,5.60
2019-03-28T00:41:08.617Z,5.50
2019-03-28T00:43:38.390Z,5.40
2019-03-28T00:46:08.311Z,5.30
2019-03-28T00:48:38.046Z,5.20
2019-03-28T00:51:07.864Z,5.20
2019-03-28T00:53:37.590Z,5.20
2019-03-28T00:56:07.625Z,5.20
2019-03-28T00:58:37.369Z,5.20
2019-03-28T01:01:07.099Z,5.10
2019-03-28T01:03:36.874Z,5.20
2019-03-28T01:06:07.275Z,5.10
2019-03-28T01:08:37.873Z,5.20
2019-03-28T01:11:07.790Z,5.10
2019-03-28T01:13:37.575Z,5.00
2019-03-28T01:16:07.307Z,4.90
2019-03-28T01:18:37.112Z,4.70
2019-03-28T01:21:06.801Z,4.80
2019-03-28T01:23:36.517Z,4.90
2019-03-28T01:26:06.280Z,4.90
2019-03-28T01:28:35.985Z,4.90
2019-03-28T01:31:05.703Z,4.80
2019-03-28T01:33:35.436Z,4.90
2019-03-28T01:36:05.110Z,4.80
2019-03-28T01:38:34.755Z,4.80
2019-03-28T01:41:04.440Z,4.90
2019-03-28T01:43:34.119Z,4.80
2019-03-28T01:46:03.831Z,4.80
2019-03-28T01:48:33.516Z,4.60
2019-03-28T01:51:03.207Z,4.60
2019-03-28T01:53:32.963Z,4.70
2019-03-28T01:56:02.649Z,4.60
2019-03-28T01:58:32.333Z,4.60
2019-03-28T02:01:02.986Z,4.40
2019-03-28T02:03:32.839Z,4.30
2019-03-28T02:06:02.524Z,4.30
2019-03-28T02:08:32.175Z,4.40
2019-03-28T02:11:01.861Z,4.30
2019-03-28T02:13:31.562Z,4.20
2019-03-28T02:16:01.318Z,4.20
2019-03-28T02:18:30.985Z,4.00
2019-03-28T02:21:01.261Z,3.90
2019-03-28T02:23:31.213Z,3.90
2019-03-28T02:26:01.008Z,3.80
2019-03-28T02:28:30.706Z,3.90
2019-03-28T02:31:00.370Z,4.00
2019-03-28T02:33:30.148Z,4.10
2019-03-28T02:35:59.814Z,4.00
2019-03-28T02:38:29.639Z,4.00
2019-03-28T02:40:59.376Z,4.10
2019-03-28T02:43:29.207Z,4.10
2019-03-28T02:45:58.911Z,4.10
2019-03-28T02:48:28.583Z,4.10
2019-03-28T02:50:58.370Z,4.00
2019-03-28T02:53:28.071Z,4.00
2019-03-28T02:55:57.783Z,4.00
2019-03-28T02:58:27.505Z,4.00
2019-03-28T03:00:57.177Z,4.00
2019-03-28T03:03:27.037Z,4.10
2019-03-28T03:05:56.833Z,4.20
2019-03-28T03:08:26.534Z,4.10
2019-03-28T03:10:56.273Z,4.10
2019-03-28T03:13:25.949Z,4.10
2019-03-28T03:15:56.776Z,4.10
2019-03-28T03:18:26.901Z,4.10
2019-03-28T03:20:56.598Z,4.10
2019-03-28T03:23:26.358Z,3.80
2019-03-28T03:25:56.126Z,3.80
2019-03-28T03:28:25.837Z,3.90
2019-03-28T03:30:55.529Z,3.80
2019-03-28T03:33:25.193Z,3.70
2019-03-28T03:35:54.906Z,3.80
2019-03-28T03:38:24.656Z,3.80
2019-03-28T03:40:54.856Z,3.90
2019-03-28T03:43:24.817Z,3.80
2019-03-28T03:45:54.608Z,3.70
2019-03-28T03:48:24.370Z,3.80
2019-03-28T03:50:54.073Z,3.70
2019-03-28T03:53:23.836Z,3.60
2019-03-28T03:55:53.641Z,3.60
2019-03-28T03:58:23.392Z,3.50
2019-03-28T04:00:53.111Z,3.50
2019-03-28T04:03:22.793Z,3.60
2019-03-28T04:05:52.481Z,3.70
2019-03-28T04:08:22.170Z,3.80
2019-03-28T04:10:51.887Z,3.70
2019-03-28T04:13:21.572Z,3.70
2019-03-28T04:15:51.340Z,3.70
2019-03-28T04:18:22.246Z,3.70
2019-03-28T04:20:52.290Z,3.60
2019-03-28T04:23:22.019Z,3.50
2019-03-28T04:25:51.868Z,3.60
2019-03-28T04:28:31.478Z,3.40
2019-03-28T04:30:53.091Z,3.40
2019-03-28T04:33:22.898Z,3.40
2019-03-28T04:35:52.565Z,3.40
2019-03-28T04:38:22.281Z,3.40
2019-03-28T04:40:52.028Z,3.40
2019-03-28T04:43:21.732Z,3.50
2019-03-28T04:45:51.388Z,3.40
2019-03-28T04:48:21.098Z,3.50
2019-03-28T04:50:50.780Z,3.50
2019-03-28T04:53:20.542Z,3.50
2019-03-28T04:55:50.253Z,3.50
2019-03-28T04:58:21.729Z,3.60
2019-03-28T05:00:51.468Z,3.50
2019-03-28T05:03:21.193Z,3.60
2019-03-28T05:05:50.872Z,3.60
2019-03-28T05:08:20.587Z,3.50
2019-03-28T05:10:50.282Z,3.50
2019-03-28T05:13:20.323Z,3.50
2019-03-28T05:15:50.382Z,3.60
2019-03-28T05:18:20.110Z,3.60
2019-03-28T05:20:49.881Z,3.50
2019-03-28T05:23:19.581Z,3.60
2019-03-28T05:25:50.247Z,3.60
2019-03-28T05:28:20.016Z,3.50
2019-03-28T05:30:49.837Z,3.60
2019-03-28T05:33:19.565Z,3.50
2019-03-28T05:35:49.288Z,3.60
2019-03-28T05:38:18.996Z,3.60
2019-03-28T05:40:48.818Z,3.70
2019-03-28T05:43:18.523Z,3.60
2019-03-28T05:45:48.187Z,3.60
2019-03-28T05:48:17.895Z,3.60
2019-03-28T05:50:47.642Z,3.70
2019-03-28T05:53:17.351Z,3.80
2019-03-28T05:55:47.075Z,3.80
2019-03-28T05:58:16.846Z,3.80
2019-03-28T06:00:46.603Z,3.80
2019-03-28T06:03:16.547Z,3.80
2019-03-28T06:05:46.290Z,3.80
2019-03-28T06:08:15.973Z,3.80
2019-03-28T06:10:45.778Z,3.90
2019-03-28T06:13:15.592Z,3.90
2019-03-28T06:15:45.361Z,3.90
2019-03-28T06:18:15.105Z,3.90
2019-03-28T06:20:44.924Z,3.80
2019-03-28T06:23:14.632Z,3.90
2019-03-28T06:25:44.444Z,3.90
2019-03-28T06:28:14.162Z,4.00
2019-03-28T06:30:44.447Z,4.10
2019-03-28T06:33:14.211Z,4.20
2019-03-28T06:35:44.211Z,4.20
2019-03-28T06:38:14.004Z,4.20
2019-03-28T06:40:43.823Z,4.30
2019-03-28T06:43:13.588Z,4.40
2019-03-28T06:45:43.398Z,4.30
2019-03-28T06:48:13.212Z,4.40
2019-03-28T06:50:42.940Z,4.50
2019-03-28T06:53:12.800Z,4.50
2019-03-28T06:55:42.567Z,4.50
2019-03-28T06:58:12.431Z,4.50
2019-03-28T07:00:42.221Z,4.60
2019-03-28T07:03:12.912Z,4.50
2019-03-28T07:05:42.863Z,4.60
2019-03-28T07:08:12.577Z,4.60
2019-03-28T07:10:42.320Z,4.50
2019-03-28T07:13:12.068Z,4.60
2019-03-28T07:15:41.764Z,4.80
2019-03-28T07:18:11.495Z,4.80
2019-03-28T07:20:41.230Z,4.90
2019-03-28T07:23:10.968Z,5.10
2019-03-28T07:25:40.661Z,5.30
2019-03-28T07:28:10.469Z,5.70
2019-03-28T07:30:40.188Z,6.10
2019-03-28T07:33:09.875Z,6.60
2019-03-28T07:35:39.671Z,7.10
2019-03-28T07:38:09.432Z,7.40
2019-03-28T07:40:39.210Z,7.80
2019-03-28T07:43:09.053Z,8.20
2019-03-28T07:45:38.852Z,8.50
2019-03-28T07:48:08.605Z,8.80
2019-03-28T07:50:38.368Z,9.00
2019-03-28T07:53:08.084Z,9.20
2019-03-28T07:55:37.857Z,9.30
2019-03-28T07:58:07.852Z,9.50
2019-03-28T08:00:38.885Z,9.60
2019-03-28T08:03:08.726Z,10.00
2019-03-28T08:05:38.448Z,10.20
2019-03-28T08:08:08.247Z,10.20
2019-03-28T08:10:37.959Z,10.40
2019-03-28T08:13:07.778Z,10.50
2019-03-28T08:15:37.465Z,10.40
2019-03-28T08:18:07.334Z,10.70
2019-03-28T08:20:37.076Z,10.80
2019-03-28T08:23:06.855Z,10.60
2019-03-28T08:25:36.660Z,10.50
2019-03-28T08:28:06.389Z,10.70
2019-03-28T08:30:38.049Z,10.70
2019-03-28T08:33:08.179Z,10.70
2019-03-28T08:35:38.573Z,10.40
2019-03-28T08:38:10.206Z,10.60
2019-03-28T08:40:42.526Z,10.70
2019-03-28T08:43:13.040Z,10.50
2019-03-28T08:45:42.816Z,10.50
2019-03-28T08:48:12.592Z,10.50
2019-03-28T08:50:42.296Z,10.30
2019-03-28T08:53:12.581Z,9.90
2019-03-28T08:55:42.426Z,10.10
2019-03-28T08:58:12.139Z,10.00
2019-03-28T09:00:51.608Z,10.20
2019-03-28T09:03:13.764Z,10.50
2019-03-28T09:05:43.545Z,10.60
2019-03-28T09:08:13.255Z,10.60
2019-03-28T09:10:42.947Z,10.80
2019-03-28T09:13:12.773Z,10.80
2019-03-28T09:15:43.945Z,11.00
2019-03-28T09:18:14.068Z,11.10
2019-03-28T09:20:43.800Z,11.10
2019-03-28T09:23:13.837Z,11.20
2019-03-28T09:25:43.648Z,11.10
2019-03-28T09:28:13.476Z,11.30
2019-03-28T09:30:49.180Z,11.40
2019-03-28T09:33:15.632Z,11.60
2019-03-28T09:35:45.394Z,11.80
2019-03-28T09:38:17.640Z,11.90
2019-03-28T09:40:47.376Z,11.90
2019-03-28T09:43:17.123Z,11.70
2019-03-28T09:45:46.827Z,11.70
2019-03-28T09:48:16.606Z,11.80
2019-03-28T09:50:46.348Z,11.80
2019-03-28T09:53:16.051Z,12.00
2019-03-28T09:55:45.849Z,12.20
2019-03-28T09:58:15.544Z,12.20
2019-03-28T10:00:45.250Z,12.20
2019-03-28T10:03:14.988Z,12.30
2019-03-28T10:05:44.680Z,12.50
2019-03-28T10:08:14.444Z,12.90
2019-03-28T10:10:44.115Z,13.00
2019-03-28T10:13:13.816Z,12.90
2019-03-28T10:15:43.893Z,13.20
2019-03-28T10:18:13.812Z,13.50
2019-03-28T10:20:43.485Z,13.20
2019-03-28T10:23:13.278Z,13.30
2019-03-28T10:25:43.021Z,13.40
2019-03-28T10:28:12.741Z,13.40
2019-03-28T10:30:44.121Z,13.70
2019-03-28T10:33:13.836Z,13.90
2019-03-28T10:35:43.638Z,13.80
2019-03-28T10:38:13.364Z,14.10
2019-03-28T10:40:43.190Z,14.20
2019-03-28T10:43:12.984Z,14.30
2019-03-28T10:45:42.693Z,14.30
2019-03-28T10:48:12.402Z,14.70
2019-03-28T10:50:45.574Z,15.00
2019-03-28T10:53:13.592Z,15.30
2019-03-28T10:55:43.367Z,15.40
2019-03-28T10:58:18.716Z,15.70
2019-03-28T11:00:44.619Z,15.80
2019-03-28T11:03:14.362Z,16.20
2019-03-28T11:05:44.064Z,16.20
2019-03-28T11:08:13.888Z,16.10
2019-03-28T11:10:43.707Z,16.10
2019-03-28T11:13:13.466Z,16.20
2019-03-28T11:15:43.254Z,16.50
2019-03-28T11:18:13.729Z,15.90
2019-03-28T11:20:43.524Z,16.20
2019-03-28T11:23:13.229Z,16.00
2019-03-28T11:25:43.011Z,16.10
2019-03-28T11:28:12.777Z,16.70
2019-03-28T11:30:42.503Z,16.00
2019-03-28T11:33:12.365Z,15.70
2019-03-28T11:35:42.156Z,15.50
2019-03-28T11:38:11.927Z,15.50
2019-03-28T11:40:42.986Z,15.30
2019-03-28T11:43:12.965Z,15.20
2019-03-28T11:45:42.786Z,14.90
2019-03-28T11:48:12.526Z,14.90
2019-03-28T11:50:42.339Z,15.20
2019-03-28T11:53:12.087Z,15.20
2019-03-28T11:55:41.818Z,15.20
2019-03-28T11:58:11.857Z,15.40
2019-03-28T12:00:41.667Z,15.50
2019-03-28T12:03:11.368Z,15.60
2019-03-28T12:05:41.169Z,15.60
2019-03-28T12:08:10.941Z,15.60
2019-03-28T12:10:40.750Z,15.60
2019-03-28T12:13:10.473Z,15.60
2019-03-28T12:15:40.193Z,15.80
2019-03-28T12:18:09.900Z,15.50
2019-03-28T12:20:39.708Z,15.80
2019-03-28T12:23:09.411Z,15.70
2019-03-28T12:25:39.132Z,15.50
2019-03-28T12:28:08.831Z,15.30
2019-03-28T12:30:38.679Z,15.50
2019-03-28T12:33:08.425Z,15.50
2019-03-28T12:35:38.212Z,15.50
2019-03-28T12:38:07.978Z,15.60
2019-03-28T12:40:40.520Z,15.40
2019-03-28T12:43:10.293Z,15.50
2019-03-28T12:45:40.102Z,15.50
2019-03-28T12:48:09.893Z,15.30
2019-03-28T12:50:39.613Z,15.30
2019-03-28T12:53:09.456Z,15.30
2019-03-28T12:55:39.224Z,15.30
2019-03-28T12:58:10.573Z,15.40
2019-03-28T13:00:40.444Z,15.30
2019-03-28T13:03:10.119Z,15.40
2019-03-28T13:05:40.122Z,15.50
2019-03-28T13:08:10.011Z,15.50
2019-03-28T13:10:39.730Z,15.20
2019-03-28T13:13:10.092Z,15.40
2019-03-28T13:15:39.952Z,15.30
2019-03-28T13:18:09.749Z,15.30
2019-03-28T13:20:39.515Z,15.30
2019-03-28T13:23:09.316Z,15.40
2019-03-28T13:25:39.019Z,15.40
2019-03-28T13:28:08.800Z,15.50
2019-03-28T13:30:38.592Z,15.50
2019-03-28T13:33:08.288Z,15.50
2019-03-28T13:35:38.016Z,15.50
2019-03-28T13:38:07.813Z,15.40
2019-03-28T13:40:37.576Z,15.40
2019-03-28T13:43:07.380Z,15.40
2019-03-28T13:45:37.279Z,15.40
2019-03-28T13:48:07.063Z,15.50
2019-03-28T13:50:36.764Z,15.30
2019-03-28T13:53:06.494Z,15.20
2019-03-28T13:55:36.281Z,15.10
2019-03-28T13:58:06.177Z,15.20
2019-03-28T14:00:36.150Z,15.10
2019-03-28T14:03:08.338Z,15.00
2019-03-28T14:05:38.163Z,15.10
2019-03-28T14:08:07.989Z,14.90
2019-03-28T14:10:37.684Z,15.10
2019-03-28T14:13:07.462Z,15.30
2019-03-28T14:15:37.153Z,15.20
2019-03-28T14:18:06.902Z,15.30
2019-03-28T14:20:36.724Z,15.30
2019-03-28T14:23:06.489Z,15.20
2019-03-28T14:25:36.714Z,15.20
2019-03-28T14:28:06.467Z,15.10
2019-03-28T14:30:39.411Z,14.90
2019-03-28T14:33:12.060Z,14.80
2019-03-28T14:35:39.182Z,14.80
2019-03-28T14:38:08.919Z,14.70
2019-03-28T14:40:38.652Z,14.80
2019-03-28T14:43:10.688Z,14.80
2019-03-28T14:45:40.160Z,14.80
2019-03-28T14:48:09.871Z,14.80
2019-03-28T14:50:40.966Z,14.80
2019-03-28T14:53:10.775Z,14.90
2019-03-28T14:55:40.593Z,15.00
2019-03-28T14:58:10.400Z,14.90
2019-03-28T15:00:58.500Z,14.90
2019-03-28T15:03:28.223Z,14.90
2019-03-28T15:05:58.545Z,14.80
2019-03-28T15:08:28.510Z,14.70
2019-03-28T15:10:58.332Z,14.70
2019-03-28T15:13:28.077Z,14.70
2019-03-28T15:15:57.846Z,14.70
2019-03-28T15:18:27.617Z,14.70
2019-03-28T15:20:57.348Z,14.60
2019-03-28T15:23:27.093Z,14.60
2019-03-28T15:25:56.802Z,14.60
2019-03-28T15:28:26.501Z,14.80
2019-03-28T15:30:56.384Z,14.80
2019-03-28T15:33:38.908Z,14.80
2019-03-28T15:35:57.786Z,14.80
2019-03-28T15:38:31.005Z,14.60
2019-03-28T15:40:59.088Z,14.50
2019-03-28T15:43:28.918Z,14.40
2019-03-28T15:45:59.474Z,14.30
2019-03-28T15:48:29.556Z,14.20
2019-03-28T15:50:59.300Z,14.30
2019-03-28T15:53:29.043Z,14.30
2019-03-28T15:55:58.839Z,14.30
2019-03-28T15:58:28.575Z,14.30
2019-03-28T16:00:58.346Z,14.30
2019-03-28T16:03:28.096Z,14.20
2019-03-28T16:05:58.791Z,14.20
2019-03-28T16:08:29.921Z,14.20
2019-03-28T16:10:59.618Z,14.20
2019-03-28T16:13:29.488Z,14.20
2019-03-28T16:15:59.345Z,14.10
2019-03-28T16:18:29.073Z,14.00
2019-03-28T16:20:58.911Z,14.00
2019-03-28T16:23:29.485Z,14.00
2019-03-28T16:25:59.359Z,14.00
2019-03-28T16:28:29.160Z,14.00
2019-03-28T16:31:00.079Z,13.90
2019-03-28T16:33:30.058Z,13.90
2019-03-28T16:35:59.834Z,13.90
2019-03-28T16:38:32.634Z,13.80
2019-03-28T16:41:00.987Z,13.90
2019-03-28T16:43:30.724Z,13.90
2019-03-28T16:46:00.434Z,13.90
2019-03-28T16:48:30.158Z,13.80
2019-03-28T16:50:59.954Z,13.80
2019-03-28T16:53:29.970Z,13.70
2019-03-28T16:55:59.696Z,13.70
2019-03-28T16:58:29.517Z,13.80
2019-03-28T17:00:59.297Z,13.70
2019-03-28T17:03:28.978Z,13.70
2019-03-28T17:05:59.429Z,13.60
2019-03-28T17:08:31.615Z,13.50
2019-03-28T17:11:01.351Z,13.50
2019-03-28T17:13:31.137Z,13.50
2019-03-28T17:16:00.872Z,13.50
2019-03-28T17:18:31.381Z,13.50
2019-03-28T17:21:01.543Z,13.40
2019-03-28T17:23:31.320Z,13.40
2019-03-28T17:26:01.136Z,13.30
2019-03-28T17:28:30.872Z,13.30
2019-03-28T17:31:00.893Z,13.30
2019-03-28T17:33:31.880Z,13.30
2019-03-28T17:36:01.988Z,13.20
2019-03-28T17:38:31.737Z,13.10
2019-03-28T17:41:02.466Z,13.10
2019-03-28T17:43:32.597Z,13.00
2019-03-28T17:46:02.325Z,13.00
2019-03-28T17:48:32.082Z,13.00
2019-03-28T17:51:01.833Z,12.90
2019-03-28T17:53:31.614Z,12.90
2019-03-28T17:56:01.346Z,12.80
2019-03-28T17:58:31.747Z,12.80
2019-03-28T18:01:01.665Z,12.80
2019-03-28T18:03:31.813Z,12.70
2019-03-28T18:06:02.037Z,12.60
2019-03-28T18:08:31.820Z,12.60
2019-03-28T18:11:01.648Z,12.60
2019-03-28T18:13:31.648Z,12.50
2019-03-28T18:16:01.813Z,12.60
2019-03-28T18:18:31.639Z,12.50
2019-03-28T18:21:01.456Z,12.50
2019-03-28T18:23:31.237Z,12.50
2019-03-28T18:26:01.076Z,12.40
2019-03-28T18:28:31.610Z,12.40
2019-03-28T18:31:01.660Z,12.30
2019-03-28T18:33:31.515Z,12.30
2019-03-28T18:36:01.263Z,12.20
2019-03-28T18:38:31.112Z,12.10
2019-03-28T18:41:00.952Z,12.10
2019-03-28T18:43:30.663Z,12.20
2019-03-28T18:46:00.493Z,12.10
2019-03-28T18:48:36.129Z,12.10
2019-03-28T18:51:01.687Z,12.10
2019-03-28T18:53:31.499Z,12.20
2019-03-28T18:56:01.246Z,12.20
2019-03-28T18:58:31.753Z,12.20
2019-03-28T19:01:01.844Z,12.10
2019-03-28T19:03:31.573Z,12.20
2019-03-28T19:06:01.439Z,12.10
2019-03-28T19:08:31.390Z,12.10
2019-03-28T19:11:01.163Z,12.20
2019-03-28T19:13:30.979Z,12.20
2019-03-28T19:16:00.741Z,12.20
2019-03-28T19:18:30.509Z,12.20
2019-03-28T19:21:00.376Z,12.20
2019-03-28T19:23:30.096Z,12.10
2019-03-28T19:26:00.815Z,12.10
2019-03-28T19:28:31.922Z,12.10
2019-03-28T19:31:01.709Z,12.20
2019-03-28T19:33:31.524Z,12.20
2019-03-28T19:36:03.321Z,12.20
2019-03-28T19:38:33.704Z,12.20
2019-03-28T19:41:03.445Z,12.20
2019-03-28T19:43:33.747Z,12.20
2019-03-28T19:46:03.492Z,12.20
2019-03-28T19:48:33.217Z,12.20
2019-03-28T19:51:03.091Z,12.20
2019-03-28T19:53:35.299Z,12.20
2019-03-28T19:56:04.374Z,12.20
2019-03-28T19:58:35.256Z,12.20
2019-03-28T20:01:05.622Z,12.20
2019-03-28T20:03:35.402Z,12.10
2019-03-28T20:06:05.733Z,12.10
2019-03-28T20:08:35.528Z,12.10
2019-03-28T20:11:05.298Z,12.10
2019-03-28T20:13:35.040Z,12.10
2019-03-28T20:16:04.793Z,12.10
2019-03-28T20:18:35.771Z,12.10
2019-03-28T20:21:05.842Z,12.00
2019-03-28T20:23:35.988Z,12.00
2019-03-28T20:26:05.824Z,12.00
2019-03-28T20:28:35.549Z,11.90
2019-03-28T20:31:05.385Z,11.90
2019-03-28T20:33:35.138Z,11.90
2019-03-28T20:36:24.632Z,11.90
2019-03-28T20:38:36.447Z,11.90
2019-03-28T20:41:06.185Z,12.00
2019-03-28T20:43:35.993Z,11.90
2019-03-28T20:46:05.760Z,11.90
2019-03-28T20:48:38.700Z,12.00
2019-03-28T20:51:07.044Z,11.90
2019-03-28T20:53:37.214Z,12.00
2019-03-28T20:56:07.666Z,12.00
2019-03-28T20:58:37.511Z,11.90
2019-03-28T21:01:07.296Z,11.90
2019-03-28T21:03:37.162Z,11.90
2019-03-28T21:06:15.259Z,11.80
2019-03-28T21:08:38.696Z,11.80
2019-03-28T21:11:08.539Z,11.90
2019-03-28T21:13:38.273Z,11.80
2019-03-28T21:16:08.112Z,11.80
2019-03-28T21:18:37.856Z,11.90
2019-03-28T21:21:07.592Z,11.80
2019-03-28T21:23:37.328Z,11.80
2019-03-28T21:26:07.033Z,11.80
2019-03-28T21:28:46.479Z,11.70
2019-03-28T21:31:08.353Z,11.70
2019-03-28T21:33:38.221Z,11.70
2019-03-28T21:36:07.922Z,11.70
2019-03-28T21:38:37.636Z,11.70
2019-03-28T21:41:07.468Z,11.70
2019-03-28T21:43:37.272Z,11.70
2019-03-28T21:46:07.229Z,11.80
2019-03-28T21:48:36.965Z,11.70
2019-03-28T21:51:06.685Z,11.70
2019-03-28T21:53:37.441Z,11.70
2019-03-28T21:56:07.129Z,11.70
2019-03-28T21:58:37.304Z,11.60
2019-03-28T22:01:07.339Z,11.60
2019-03-28T22:03:39.758Z,11.50
2019-03-28T22:06:08.650Z,11.50
2019-03-28T22:08:38.338Z,11.60
2019-03-28T22:11:08.465Z,11.50
2019-03-28T22:13:38.237Z,11.40
2019-03-28T22:16:07.988Z,11.40
2019-03-28T22:18:37.667Z,11.50
2019-03-28T22:21:07.371Z,11.40
2019-03-28T22:23:37.063Z,11.40
2019-03-28T22:26:06.848Z,11.40
2019-03-28T22:28:37.998Z,11.40
2019-03-28T22:31:08.076Z,11.40
2019-03-28T22:33:37.853Z,11.40
2019-03-28T22:36:07.592Z,11.40
2019-03-28T22:38:37.265Z,11.40
2019-03-28T22:41:07.090Z,11.40
2019-03-28T22:43:38.770Z,11.40
2019-03-28T22:46:08.329Z,11.40
2019-03-28T22:48:38.052Z,11.30
2019-03-28T22:51:07.776Z,11.30
2019-03-28T22:53:37.570Z,11.30
2019-03-28T22:56:07.276Z,11.30
2019-03-28T22:58:37.125Z,11.40
2019-03-28T23:01:07.020Z,11.30
2019-03-28T23:03:36.822Z,11.40
2019-03-28T23:06:06.665Z,11.30
2019-03-28T23:08:36.409Z,11.40
2019-03-28T23:11:06.231Z,11.30
2019-03-28T23:13:36.061Z,11.20
2019-03-28T23:16:06.131Z,11.30
2019-03-28T23:18:35.957Z,11.30
2019-03-28T23:21:05.629Z,11.20
2019-03-28T23:23:35.410Z,11.20
2019-03-28T23:26:05.220Z,11.20
2019-03-28T23:28:34.992Z,11.30
2019-03-28T23:31:04.736Z,11.10
2019-03-28T23:33:34.541Z,11.00
2019-03-28T23:36:04.337Z,11.00
2019-03-28T23:38:34.069Z,10.90
2019-03-28T23:41:03.883Z,11.00
2019-03-28T23:43:33.603Z,11.00
2019-03-28T23:46:03.515Z,10.90
2019-03-28T23:48:33.334Z,10.90
2019-03-28T23:51:03.105Z,10.80
2019-03-28T23:53:32.796Z,10.80
2019-03-28T23:56:02.520Z,10.90
2019-03-28T23:58:32.261Z,10.90
